Time;durP1;ratioP1;P1;durP2;ratioP2;P2;SDS_P1;SDS_P2;PMS_P1;PMS_P2;Temp;Humidity;BMP_temperature;BMP_pressure;BME280_temperature;BME280_humidity;BME280_pressure;Samples;Min_cycle;Max_cycle;Signal;HPM_P1;HPM_P2
2023/04/19 00:00:56;;;;;;;10.38;4.97;;;;;;;;;;5005453;28;20434;-83
2023/04/19 00:03:30;;;;;;;9.73;4.57;;;;;;;;;;4994985;28;20816;-81
2023/04/19 00:05:58;;;;;;;12.38;4.85;;;;;;;;;;5007514;28;20434;-82
2023/04/19 00:08:26;;;;;;;11.20;5.00;;;;;;;;;;4991457;28;20437;-81
2023/04/19 00:10:54;;;;;;;11.98;4.50;;;;;;;;;;5007671;28;20433;-82
2023/04/19 00:13:22;;;;;;;10.50;4.63;;;;;;;;;;4990099;28;20814;-81
2023/04/19 00:15:50;;;;;;;11.15;4.88;;;;;;;;;;4991002;28;20631;-81
2023/04/19 00:18:17;;;;;;;15.03;5.33;;;;;;;;;;4990821;28;20430;-82
2023/04/19 00:20:47;;;;;;;10.27;4.90;;;;;;;;;;4971818;28;20432;-82
2023/04/19 00:23:15;;;;;;;9.90;4.78;;;;;;;;;;5000312;28;20422;-81
2023/04/19 00:25:43;;;;;;;9.52;4.70;;;;;;;;;;4992531;28;20430;-81
2023/04/19 00:28:15;;;;;;;10.27;4.67;;;;;;;;;;4989517;28;20762;-82
2023/04/19 00:30:43;;;;;;;9.30;4.63;;;;;;;;;;4992573;28;20461;-82
2023/04/19 00:33:12;;;;;;;11.40;4.60;;;;;;;;;;4991002;28;20422;-82
2023/04/19 00:35:40;;;;;;;9.73;4.75;;;;;;;;;;4992240;28;20418;-83
2023/04/19 00:38:09;;;;;;;9.52;4.45;;;;;;;;;;4990271;28;20421;-82
2023/04/19 00:40:37;;;;;;;10.38;4.80;;;;;;;;;;4988028;28;20766;-82
2023/04/19 00:43:05;;;;;;;11.20;4.60;;;;;;;;;;4990777;28;20751;-82
2023/04/19 00:45:34;;;;;;;10.20;4.17;;;;;;;;;;4987137;28;20416;-81
2023/04/19 00:48:08;;;;;;;8.57;4.07;;;;;;;;;;5003347;28;20414;-83
2023/04/19 00:50:38;;;;;;;7.85;3.63;;;;;;;;;;4991261;28;20414;-82
2023/04/19 00:53:07;;;;;;;11.32;4.10;;;;;;;;;;4990606;28;20903;-81
2023/04/19 00:55:37;;;;;;;10.10;4.03;;;;;;;;;;4991599;28;20422;-81
2023/04/19 00:58:05;;;;;;;12.20;4.07;;;;;;;;;;4991950;28;20906;-82
2023/04/19 01:00:33;;;;;;;7.72;3.90;;;;;;;;;;4988032;28;20431;-82
2023/04/19 01:03:01;;;;;;;8.00;3.78;;;;;;;;;;4991870;28;20417;-81
2023/04/19 01:05:33;;;;;;;8.37;3.83;;;;;;;;;;4987286;28;20470;-82
2023/04/19 01:08:07;;;;;;;8.13;3.43;;;;;;;;;;4991357;28;20437;-82
2023/04/19 01:10:36;;;;;;;8.18;3.60;;;;;;;;;;4990622;28;20791;-81
2023/04/19 01:13:04;;;;;;;7.67;3.47;;;;;;;;;;5006442;28;20456;-81
2023/04/19 01:15:32;;;;;;;8.15;3.50;;;;;;;;;;4991402;28;20425;-81
2023/04/19 01:18:00;;;;;;;8.68;3.70;;;;;;;;;;4990378;28;20425;-82
2023/04/19 01:20:28;;;;;;;7.43;3.55;;;;;;;;;;5006563;28;20426;-81
2023/04/19 01:22:57;;;;;;;9.38;3.67;;;;;;;;;;4987475;28;20420;-82
2023/04/19 01:25:27;;;;;;;8.98;3.88;;;;;;;;;;4985423;28;20426;-81
2023/04/19 01:27:55;;;;;;;8.13;3.60;;;;;;;;;;4991624;28;20917;-81
2023/04/19 01:30:24;;;;;;;8.48;3.50;;;;;;;;;;4993829;28;20432;-81
2023/04/19 01:32:51;;;;;;;8.37;3.60;;;;;;;;;;4991348;28;20459;-83
2023/04/19 01:35:24;;;;;;;8.00;3.43;;;;;;;;;;4989552;28;20452;-83
2023/04/19 01:37:54;;;;;;;7.55;3.50;;;;;;;;;;5010801;28;20418;-82
2023/04/19 01:40:29;;;;;;;7.78;3.40;;;;;;;;;;5001387;28;20427;-82
2023/04/19 01:42:57;;;;;;;11.07;3.70;;;;;;;;;;4994505;28;20422;-82
2023/04/19 01:45:26;;;;;;;7.90;3.50;;;;;;;;;;4993826;28;20915;-82
2023/04/19 01:47:54;;;;;;;7.77;3.80;;;;;;;;;;4994429;28;20468;-81
2023/04/19 01:50:22;;;;;;;8.05;3.80;;;;;;;;;;4993872;28;20433;-82
2023/04/19 01:52:50;;;;;;;9.98;4.00;;;;;;;;;;4988608;28;20442;-81
2023/04/19 01:55:18;;;;;;;9.02;3.90;;;;;;;;;;4993964;28;20426;-82
2023/04/19 01:57:47;;;;;;;9.65;4.20;;;;;;;;;;4995779;28;20414;-81
2023/04/19 02:00:16;;;;;;;11.17;4.20;;;;;;;;;;4992432;28;20416;-81
2023/04/19 02:02:44;;;;;;;11.43;4.10;;;;;;;;;;4994856;28;20433;-81
2023/04/19 02:05:17;;;;;;;8.52;3.63;;;;;;;;;;5009535;28;20426;-83
2023/04/19 02:07:50;;;;;;;7.78;3.65;;;;;;;;;;4994598;28;20441;-82
2023/04/19 02:10:18;;;;;;;11.10;3.58;;;;;;;;;;4991191;28;20428;-81
2023/04/19 02:12:47;;;;;;;8.52;3.50;;;;;;;;;;4992200;28;20431;-82
2023/04/19 02:15:15;;;;;;;7.68;3.38;;;;;;;;;;4992676;28;20434;-81
2023/04/19 02:17:42;;;;;;;8.50;3.25;;;;;;;;;;4976370;28;20440;-81
2023/04/19 02:20:10;;;;;;;7.50;3.28;;;;;;;;;;4992319;28;20424;-81
2023/04/19 02:22:43;;;;;;;8.82;3.30;;;;;;;;;;5003184;28;20437;-82
2023/04/19 02:25:11;;;;;;;9.20;3.10;;;;;;;;;;5008716;28;20438;-81
2023/04/19 02:27:39;;;;;;;7.95;3.53;;;;;;;;;;4993242;28;20430;-81
2023/04/19 02:30:09;;;;;;;7.93;3.28;;;;;;;;;;4993220;28;20502;-82
2023/04/19 02:32:42;;;;;;;9.50;3.67;;;;;;;;;;4994457;28;20457;-82
2023/04/19 02:35:15;;;;;;;10.80;3.35;;;;;;;;;;4993385;28;20435;-81
2023/04/19 02:37:44;;;;;;;8.85;3.67;;;;;;;;;;5009615;28;20429;-82
2023/04/19 02:40:12;;;;;;;7.03;3.20;;;;;;;;;;4990573;28;20443;-83
2023/04/19 02:42:39;;;;;;;8.20;3.40;;;;;;;;;;4996008;28;20436;-83
2023/04/19 02:45:13;;;;;;;10.18;3.50;;;;;;;;;;5008300;28;20782;-82
2023/04/19 02:47:41;;;;;;;7.72;3.47;;;;;;;;;;4992676;28;20838;-83
2023/04/19 02:50:10;;;;;;;8.18;3.38;;;;;;;;;;4990743;28;20435;-82
2023/04/19 02:52:44;;;;;;;8.98;3.55;;;;;;;;;;5007777;28;20427;-81
2023/04/19 02:55:12;;;;;;;7.82;3.13;;;;;;;;;;4991417;28;20414;-81
2023/04/19 02:57:40;;;;;;;7.47;3.03;;;;;;;;;;4992595;28;20430;-82
2023/04/19 03:00:11;;;;;;;7.63;3.00;;;;;;;;;;4992815;28;20427;-82
2023/04/19 03:02:55;;;;;;;7.65;3.13;;;;;;;;;;5005695;28;20410;-81
2023/04/19 03:05:23;;;;;;;7.18;2.80;;;;;;;;;;4992596;28;20425;-82
2023/04/19 03:07:56;;;;;;;10.10;2.85;;;;;;;;;;4992539;28;20919;-82
2023/04/19 03:10:25;;;;;;;7.20;2.92;;;;;;;;;;4992962;28;20418;-82
2023/04/19 03:12:57;;;;;;;6.72;2.92;;;;;;;;;;4975712;28;20431;-84
2023/04/19 03:15:25;;;;;;;7.50;2.90;;;;;;;;;;4992455;28;20783;-81
2023/04/19 03:17:59;;;;;;;8.65;2.85;;;;;;;;;;4989646;28;20427;-84
2023/04/19 03:20:28;;;;;;;6.55;2.53;;;;;;;;;;4996604;28;20441;-84
2023/04/19 03:23:01;;;;;;;6.88;2.55;;;;;;;;;;5007891;28;20435;-83
2023/04/19 03:25:29;;;;;;;5.70;2.70;;;;;;;;;;4988907;28;20811;-83
2023/04/19 03:28:08;;;;;;;7.40;2.75;;;;;;;;;;5008535;28;20426;-82
2023/04/19 03:31:05;;;;;;;6.50;2.60;;;;;;;;;;4993029;28;20425;-82
2023/04/19 03:33:34;;;;;;;6.57;2.75;;;;;;;;;;4975584;28;20422;-83
2023/04/19 03:36:08;;;;;;;5.18;2.30;;;;;;;;;;5006567;28;20415;-82
2023/04/19 03:38:44;;;;;;;6.82;2.30;;;;;;;;;;4993305;28;20407;-82
2023/04/19 03:41:20;;;;;;;4.88;2.28;;;;;;;;;;5007343;28;20427;-84
2023/04/19 03:44:14;;;;;;;5.68;2.45;;;;;;;;;;4992885;28;20446;-83
2023/04/19 03:46:45;;;;;;;5.28;2.50;;;;;;;;;;4990553;28;20418;-83
2023/04/19 03:49:16;;;;;;;7.18;2.40;;;;;;;;;;4992070;28;20907;-83
2023/04/19 03:51:48;;;;;;;5.25;2.40;;;;;;;;;;4988362;28;20954;-84
2023/04/19 03:54:16;;;;;;;6.13;2.70;;;;;;;;;;4989710;28;20428;-83
2023/04/19 03:56:49;;;;;;;5.68;2.20;;;;;;;;;;5008081;28;20791;-83
2023/04/19 03:59:22;;;;;;;6.75;2.28;;;;;;;;;;5007719;28;20419;-82
2023/04/19 04:01:49;;;;;;;5.13;2.00;;;;;;;;;;4991347;28;20433;-82
2023/04/19 04:04:19;;;;;;;6.30;2.22;;;;;;;;;;4991487;28;20441;-82
2023/04/19 04:06:47;;;;;;;6.50;2.40;;;;;;;;;;4988176;28;20432;-83
2023/04/19 04:09:17;;;;;;;5.07;2.25;;;;;;;;;;5007425;28;20427;-83
2023/04/19 04:11:45;;;;;;;5.65;2.20;;;;;;;;;;4971893;28;20801;-83
2023/04/19 04:14:13;;;;;;;9.13;2.30;;;;;;;;;;4988372;28;20454;-82
2023/04/19 04:16:40;;;;;;;5.97;2.45;;;;;;;;;;4991604;28;20419;-81
2023/04/19 04:19:08;;;;;;;5.63;2.30;;;;;;;;;;5003031;28;20426;-83
2023/04/19 04:21:43;;;;;;;5.80;2.30;;;;;;;;;;4991349;28;20433;-82
2023/04/19 04:24:12;;;;;;;6.22;2.10;;;;;;;;;;4991404;28;20435;-83
2023/04/19 04:26:50;;;;;;;7.97;2.30;;;;;;;;;;4990970;28;20427;-84
2023/04/19 04:29:27;;;;;;;6.75;2.13;;;;;;;;;;5007592;28;20951;-82
2023/04/19 04:31:58;;;;;;;6.00;2.20;;;;;;;;;;5007163;28;20806;-83
2023/04/19 04:34:31;;;;;;;5.22;2.20;;;;;;;;;;5007657;28;20418;-82
2023/04/19 04:37:07;;;;;;;5.40;2.33;;;;;;;;;;5005344;28;20431;-82
2023/04/19 04:39:38;;;;;;;5.63;2.10;;;;;;;;;;4988664;28;20785;-82
2023/04/19 04:42:07;;;;;;;4.60;2.10;;;;;;;;;;4990126;28;21290;-82
2023/04/19 04:44:41;;;;;;;5.35;2.20;;;;;;;;;;5012183;28;20427;-81
2023/04/19 04:47:14;;;;;;;5.35;2.20;;;;;;;;;;4999542;28;20415;-81
2023/04/19 04:49:48;;;;;;;5.18;2.30;;;;;;;;;;5007567;28;20534;-83
2023/04/19 04:52:17;;;;;;;4.75;2.00;;;;;;;;;;4972953;28;20900;-82
2023/04/19 04:54:55;;;;;;;5.40;2.40;;;;;;;;;;4987769;28;20451;-81
2023/04/19 04:57:28;;;;;;;4.70;2.10;;;;;;;;;;4988106;28;20420;-82
2023/04/19 04:59:57;;;;;;;5.15;2.10;;;;;;;;;;5006509;28;20737;-83
2023/04/19 05:02:36;;;;;;;6.47;2.28;;;;;;;;;;5006969;28;20426;-82
2023/04/19 05:05:04;;;;;;;5.50;2.17;;;;;;;;;;5001454;28;20426;-82
2023/04/19 05:07:34;;;;;;;5.40;2.10;;;;;;;;;;4992246;28;20420;-82
2023/04/19 05:10:02;;;;;;;4.97;2.20;;;;;;;;;;4986731;28;20435;-82
2023/04/19 05:12:39;;;;;;;6.10;1.83;;;;;;;;;;4998688;28;20434;-82
2023/04/19 05:15:08;;;;;;;5.63;1.93;;;;;;;;;;4987060;28;20501;-82
2023/04/19 05:17:37;;;;;;;3.13;1.60;;;;;;;;;;5007381;28;20425;-84
2023/04/19 05:20:06;;;;;;;4.10;1.60;;;;;;;;;;4990018;28;20767;-83
2023/04/19 05:22:41;;;;;;;6.20;1.83;;;;;;;;;;5008194;28;20907;-84
2023/04/19 05:25:10;;;;;;;5.20;1.60;;;;;;;;;;5009582;28;20423;-82
2023/04/19 05:27:39;;;;;;;4.40;1.45;;;;;;;;;;5005914;28;20449;-82
2023/04/19 05:30:12;;;;;;;4.30;1.50;;;;;;;;;;4986496;28;20440;-83
2023/04/19 05:32:43;;;;;;;2.92;1.42;;;;;;;;;;4990510;28;20411;-82
2023/04/19 05:35:13;;;;;;;3.10;1.45;;;;;;;;;;5004917;28;20795;-82
2023/04/19 05:37:44;;;;;;;3.03;1.40;;;;;;;;;;5003517;28;20436;-83
2023/04/19 05:40:12;;;;;;;2.92;1.20;;;;;;;;;;4985877;28;20455;-83
2023/04/19 05:42:40;;;;;;;2.90;1.40;;;;;;;;;;4993141;28;20901;-82
2023/04/19 05:45:09;;;;;;;2.75;1.20;;;;;;;;;;4996854;28;20800;-82
2023/04/19 05:47:42;;;;;;;2.65;1.20;;;;;;;;;;4989179;28;20418;-81
2023/04/19 05:50:29;;;;;;;2.70;1.30;;;;;;;;;;4989877;28;20422;-82
2023/04/19 05:53:24;;;;;;;2.10;1.00;;;;;;;;;;5004633;28;20425;-78
2023/04/19 05:55:53;;;;;;;2.22;1.20;;;;;;;;;;4990330;28;20445;-80
2023/04/19 05:58:22;;;;;;;3.75;1.05;;;;;;;;;;4993335;28;20418;-82
2023/04/19 06:00:56;;;;;;;2.63;1.00;;;;;;;;;;4989055;28;20561;-82
2023/04/19 06:03:24;;;;;;;2.83;1.10;;;;;;;;;;4991195;28;20422;-82
2023/04/19 06:05:53;;;;;;;3.20;1.30;;;;;;;;;;4989087;28;20418;-80
2023/04/19 06:08:21;;;;;;;2.55;1.10;;;;;;;;;;4992388;28;20903;-81
2023/04/19 06:10:50;;;;;;;2.30;0.98;;;;;;;;;;5008099;28;20434;-82
2023/04/19 06:13:18;;;;;;;2.83;1.20;;;;;;;;;;4991419;28;20418;-81
2023/04/19 06:15:47;;;;;;;2.40;1.03;;;;;;;;;;4988816;28;20423;-82
2023/04/19 06:18:14;;;;;;;2.50;1.00;;;;;;;;;;4990588;28;20441;-82
2023/04/19 06:20:42;;;;;;;2.50;1.20;;;;;;;;;;4992729;28;20424;-82
2023/04/19 06:23:11;;;;;;;1.70;0.80;;;;;;;;;;5010144;28;20430;-77
2023/04/19 06:25:39;;;;;;;1.98;0.90;;;;;;;;;;4993189;28;20422;-78
2023/04/19 06:28:09;;;;;;;2.35;1.05;;;;;;;;;;5008970;28;20434;-78
2023/04/19 06:30:36;;;;;;;3.47;1.15;;;;;;;;;;5007615;28;20441;-79
2023/04/19 06:33:04;;;;;;;2.17;1.00;;;;;;;;;;4994746;28;20422;-80
2023/04/19 06:35:37;;;;;;;1.63;0.90;;;;;;;;;;4992837;28;20438;-79
2023/04/19 06:38:10;;;;;;;3.60;1.00;;;;;;;;;;5004013;28;20429;-78
2023/04/19 06:40:43;;;;;;;2.45;1.08;;;;;;;;;;4992660;28;20433;-80
2023/04/19 06:43:17;;;;;;;3.80;0.90;;;;;;;;;;5003248;28;20443;-78
2023/04/19 06:45:45;;;;;;;3.20;0.90;;;;;;;;;;5008144;28;20449;-80
2023/04/19 06:48:13;;;;;;;2.88;0.98;;;;;;;;;;4999347;28;20430;-79
2023/04/19 06:50:40;;;;;;;1.88;1.00;;;;;;;;;;4993551;28;20426;-77
2023/04/19 06:53:13;;;;;;;3.20;1.00;;;;;;;;;;4992607;28;20894;-79
2023/04/19 06:55:41;;;;;;;1.92;0.80;;;;;;;;;;4995335;28;20430;-80
2023/04/19 06:58:13;;;;;;;2.58;0.98;;;;;;;;;;5009178;28;20798;-78
2023/04/19 07:00:43;;;;;;;2.83;0.82;;;;;;;;;;4992758;28;20435;-79
2023/04/19 07:03:10;;;;;;;1.80;1.08;;;;;;;;;;4985830;28;20442;-81
2023/04/19 07:05:38;;;;;;;1.83;0.98;;;;;;;;;;4988836;28;20433;-85
2023/04/19 07:08:06;;;;;;;1.98;0.93;;;;;;;;;;5009446;28;20434;-81
2023/04/19 07:10:34;;;;;;;2.08;0.90;;;;;;;;;;5003913;28;20437;-79
2023/04/19 07:13:06;;;;;;;1.60;0.90;;;;;;;;;;4985642;28;20428;-81
2023/04/19 07:15:39;;;;;;;1.70;0.90;;;;;;;;;;4984917;28;21154;-81
2023/04/19 07:18:10;;;;;;;2.83;1.08;;;;;;;;;;4983217;28;20425;-85
2023/04/19 07:20:38;;;;;;;1.90;0.90;;;;;;;;;;5000445;28;20464;-82
2023/04/19 07:23:06;;;;;;;1.50;0.90;;;;;;;;;;4993163;28;20461;-83
2023/04/19 07:25:33;;;;;;;1.50;0.80;;;;;;;;;;4985100;28;20435;-84
2023/04/19 07:28:06;;;;;;;1.38;0.85;;;;;;;;;;4988277;28;20460;-83
2023/04/19 07:30:35;;;;;;;1.95;0.90;;;;;;;;;;4975518;28;20432;-81
2023/04/19 07:33:04;;;;;;;3.63;1.10;;;;;;;;;;4990141;28;20428;-82
2023/04/19 07:35:33;;;;;;;4.17;1.10;;;;;;;;;;4981917;28;20986;-83
2023/04/19 07:38:01;;;;;;;2.80;1.00;;;;;;;;;;4994827;28;20787;-85
2023/04/19 07:40:29;;;;;;;2.50;0.93;;;;;;;;;;4993275;28;20445;-82
2023/04/19 07:42:57;;;;;;;3.55;1.10;;;;;;;;;;4991935;28;20806;-82
2023/04/19 07:45:25;;;;;;;2.20;1.20;;;;;;;;;;4981558;28;20476;-83
2023/04/19 07:47:58;;;;;;;2.17;1.00;;;;;;;;;;4983887;28;20437;-84
2023/04/19 07:50:26;;;;;;;2.22;0.90;;;;;;;;;;4994397;28;20444;-83
2023/04/19 07:53:00;;;;;;;2.22;1.00;;;;;;;;;;4978118;28;20948;-82
2023/04/19 07:55:28;;;;;;;3.60;1.08;;;;;;;;;;4998763;28;20430;-79
2023/04/19 07:58:01;;;;;;;2.95;0.95;;;;;;;;;;4996355;28;21142;-81
2023/04/19 08:00:30;;;;;;;3.28;1.08;;;;;;;;;;4983454;28;20421;-82
2023/04/19 08:02:58;;;;;;;1.88;0.90;;;;;;;;;;4982133;28;20422;-81
2023/04/19 08:05:26;;;;;;;1.83;0.80;;;;;;;;;;5000550;28;20421;-80
2023/04/19 08:07:54;;;;;;;2.33;1.00;;;;;;;;;;4984385;28;20434;-81
2023/04/19 08:10:23;;;;;;;3.70;1.20;;;;;;;;;;4996269;28;20982;-82
2023/04/19 08:12:56;;;;;;;3.33;1.15;;;;;;;;;;4986361;28;20427;-79
2023/04/19 08:15:23;;;;;;;3.10;1.25;;;;;;;;;;4978161;28;20442;-80
2023/04/19 08:17:51;;;;;;;2.40;1.10;;;;;;;;;;4988442;28;20443;-85
2023/04/19 08:20:24;;;;;;;1.90;1.00;;;;;;;;;;4985492;28;20440;-82
2023/04/19 08:22:53;;;;;;;3.70;1.10;;;;;;;;;;4997365;28;20419;-82
2023/04/19 08:25:25;;;;;;;3.73;1.10;;;;;;;;;;4983668;28;20438;-82
2023/04/19 08:27:56;;;;;;;2.17;1.20;;;;;;;;;;5000128;28;20811;-84
2023/04/19 08:30:24;;;;;;;2.47;1.17;;;;;;;;;;4995843;28;20441;-84
2023/04/19 08:32:56;;;;;;;3.00;1.13;;;;;;;;;;4980165;28;20903;-81
2023/04/19 08:35:24;;;;;;;2.90;1.20;;;;;;;;;;4997319;28;20469;-84
2023/04/19 08:37:52;;;;;;;1.90;1.20;;;;;;;;;;4990754;28;20438;-83
2023/04/19 08:40:20;;;;;;;2.45;1.25;;;;;;;;;;4998803;28;20853;-85
2023/04/19 08:42:48;;;;;;;2.65;1.10;;;;;;;;;;4978813;28;20424;-82
2023/04/19 08:45:25;;;;;;;2.97;1.40;;;;;;;;;;4995757;28;20426;-84
2023/04/19 08:47:53;;;;;;;2.53;1.20;;;;;;;;;;4980260;28;20811;-81
2023/04/19 08:50:21;;;;;;;2.90;1.20;;;;;;;;;;4999407;28;20442;-83
2023/04/19 08:52:54;;;;;;;2.37;1.20;;;;;;;;;;4991344;28;20524;-84
2023/04/19 08:55:22;;;;;;;2.38;1.20;;;;;;;;;;4978968;28;20440;-85
2023/04/19 08:57:50;;;;;;;2.28;1.13;;;;;;;;;;4980581;28;20435;-85
2023/04/19 09:00:18;;;;;;;3.20;1.40;;;;;;;;;;4970896;28;20450;-83
2023/04/19 09:02:49;;;;;;;1.75;1.10;;;;;;;;;;4977742;28;20788;-83
2023/04/19 09:05:21;;;;;;;3.88;1.35;;;;;;;;;;4998320;28;21059;-84
2023/04/19 09:07:54;;;;;;;2.63;1.25;;;;;;;;;;4984449;28;21138;-81
2023/04/19 09:10:24;;;;;;;5.78;1.40;;;;;;;;;;4991034;28;20428;-80
2023/04/19 09:13:00;;;;;;;2.80;1.30;;;;;;;;;;4994998;28;20800;-82
2023/04/19 09:15:38;;;;;;;3.03;1.40;;;;;;;;;;4995893;28;20453;-83
2023/04/19 09:18:13;;;;;;;2.97;1.40;;;;;;;;;;4980042;28;20434;-82
2023/04/19 09:20:41;;;;;;;3.03;1.40;;;;;;;;;;4982598;28;20440;-86
2023/04/19 09:23:11;;;;;;;2.75;1.30;;;;;;;;;;4990986;28;20432;-83
2023/04/19 09:25:51;;;;;;;4.28;1.40;;;;;;;;;;4974261;28;20434;-85
2023/04/19 09:28:24;;;;;;;3.97;1.50;;;;;;;;;;4995434;28;20450;-85
2023/04/19 09:30:52;;;;;;;3.72;1.48;;;;;;;;;;4993999;28;20440;-85
2023/04/19 09:33:33;;;;;;;3.78;1.48;;;;;;;;;;4979562;28;20426;-86
2023/04/19 09:36:06;;;;;;;3.55;1.60;;;;;;;;;;4998958;28;20436;-83
2023/04/19 09:38:46;;;;;;;5.40;1.73;;;;;;;;;;4977420;28;20417;-86
2023/04/19 09:41:14;;;;;;;3.33;1.75;;;;;;;;;;4982857;28;20434;-83
2023/04/19 09:43:42;;;;;;;7.03;1.63;;;;;;;;;;4994673;28;20445;-87
2023/04/19 09:46:29;;;;;;;4.75;1.70;;;;;;;;;;4994258;28;20434;-82
2023/04/19 09:49:22;;;;;;;3.05;1.58;;;;;;;;;;4998364;28;20442;-85
2023/04/19 09:51:55;;;;;;;4.00;1.77;;;;;;;;;;4991158;28;20436;-85
2023/04/19 09:54:23;;;;;;;5.55;1.67;;;;;;;;;;4987283;28;20445;-84
2023/04/19 09:56:52;;;;;;;4.70;1.55;;;;;;;;;;4998993;28;20425;-85
2023/04/19 09:59:25;;;;;;;4.20;1.60;;;;;;;;;;4978393;28;20439;-84
2023/04/19 10:01:55;;;;;;;4.13;1.80;;;;;;;;;;5003640;28;20428;-82
2023/04/19 10:04:25;;;;;;;4.03;1.55;;;;;;;;;;4984699;28;20786;-81
2023/04/19 10:06:54;;;;;;;5.47;1.85;;;;;;;;;;5001091;28;20431;-82
2023/04/19 10:09:22;;;;;;;3.83;1.67;;;;;;;;;;5002522;28;20445;-83
2023/04/19 10:11:51;;;;;;;3.40;1.50;;;;;;;;;;4998263;28;21294;-82
2023/04/19 10:14:21;;;;;;;5.10;1.60;;;;;;;;;;4998505;28;20436;-86
2023/04/19 10:16:56;;;;;;;4.07;1.63;;;;;;;;;;4997711;28;20482;-81
2023/04/19 10:19:31;;;;;;;3.97;1.70;;;;;;;;;;4981740;28;20707;-86
2023/04/19 10:21:59;;;;;;;4.25;1.65;;;;;;;;;;5000758;28;20451;-86
2023/04/19 10:24:27;;;;;;;4.25;1.52;;;;;;;;;;4984126;28;21200;-82
2023/04/19 10:27:06;;;;;;;4.85;1.77;;;;;;;;;;4995681;28;20441;-85
2023/04/19 10:29:52;;;;;;;4.80;1.43;;;;;;;;;;4987486;28;21883;-85
2023/04/19 10:32:20;;;;;;;4.13;1.70;;;;;;;;;;4990045;28;20437;-82
2023/04/19 10:34:51;;;;;;;5.82;1.40;;;;;;;;;;4995582;28;20430;-79
2023/04/19 10:37:21;;;;;;;3.90;1.58;;;;;;;;;;4992253;28;20438;-83
2023/04/19 10:39:49;;;;;;;3.05;1.50;;;;;;;;;;4990229;28;20445;-81
2023/04/19 10:42:17;;;;;;;3.75;1.65;;;;;;;;;;4995787;28;20444;-82
2023/04/19 10:45:08;;;;;;;4.87;1.90;;;;;;;;;;4981955;28;20437;-82
2023/04/19 10:47:43;;;;;;;5.57;1.60;;;;;;;;;;4990080;28;20457;-83
2023/04/19 10:50:12;;;;;;;4.03;1.80;;;;;;;;;;4987619;28;20439;-83
2023/04/19 10:52:40;;;;;;;6.10;1.55;;;;;;;;;;4999105;28;20806;-81
2023/04/19 10:55:08;;;;;;;4.47;1.60;;;;;;;;;;5002041;28;20911;-82
2023/04/19 10:58:02;;;;;;;3.53;1.52;;;;;;;;;;4987800;28;21229;-81
2023/04/19 11:00:32;;;;;;;5.10;1.77;;;;;;;;;;4986084;28;20432;-83
2023/04/19 11:03:20;;;;;;;2.80;1.40;;;;;;;;;;4980317;28;20428;-82
2023/04/19 11:06:02;;;;;;;6.07;1.70;;;;;;;;;;4993029;28;20819;-84
2023/04/19 11:08:42;;;;;;;4.78;1.60;;;;;;;;;;4998563;28;20436;-82
2023/04/19 11:11:10;;;;;;;3.25;1.55;;;;;;;;;;4996992;28;20477;-85
2023/04/19 11:13:38;;;;;;;4.10;1.55;;;;;;;;;;4997973;28;20445;-79
2023/04/19 11:16:07;;;;;;;3.57;1.50;;;;;;;;;;5002524;28;20446;-86
2023/04/19 11:18:40;;;;;;;3.63;1.50;;;;;;;;;;4995523;28;20453;-79
2023/04/19 11:21:13;;;;;;;4.72;1.50;;;;;;;;;;4997867;28;20933;-85
2023/04/19 11:23:42;;;;;;;3.90;1.40;;;;;;;;;;4989766;28;20537;-84
2023/04/19 11:26:15;;;;;;;3.95;1.65;;;;;;;;;;4983355;28;20478;-81
2023/04/19 11:28:44;;;;;;;5.28;1.45;;;;;;;;;;4989885;28;20442;-85
2023/04/19 11:31:12;;;;;;;3.47;1.70;;;;;;;;;;4982625;28;20420;-83
2023/04/19 11:33:40;;;;;;;3.85;1.70;;;;;;;;;;4996317;28;20438;-86
2023/04/19 11:36:11;;;;;;;2.60;1.40;;;;;;;;;;4982123;28;20441;-83
2023/04/19 11:38:39;;;;;;;4.63;1.50;;;;;;;;;;4995278;28;20438;-83
2023/04/19 11:41:09;;;;;;;5.80;1.65;;;;;;;;;;4983572;28;20445;-84
2023/04/19 11:43:37;;;;;;;4.35;1.73;;;;;;;;;;4998526;28;20440;-86
2023/04/19 11:46:10;;;;;;;4.80;1.50;;;;;;;;;;4998194;28;20430;-82
2023/04/19 11:48:38;;;;;;;3.67;1.70;;;;;;;;;;4998660;28;20442;-88
2023/04/19 11:51:06;;;;;;;8.13;1.98;;;;;;;;;;4985996;28;21171;-82
2023/04/19 11:53:39;;;;;;;5.05;1.48;;;;;;;;;;4995713;28;20425;-82
2023/04/19 11:56:09;;;;;;;3.72;1.80;;;;;;;;;;4999072;28;20990;-85
2023/04/19 11:58:38;;;;;;;5.22;2.03;;;;;;;;;;4987244;28;20566;-84
2023/04/19 12:01:07;;;;;;;3.45;1.60;;;;;;;;;;4989281;28;20428;-84
2023/04/19 12:03:35;;;;;;;6.22;1.77;;;;;;;;;;4990076;28;20929;-81
2023/04/19 12:06:07;;;;;;;6.03;1.83;;;;;;;;;;4987781;28;20440;-81
2023/04/19 12:08:36;;;;;;;5.38;1.80;;;;;;;;;;5001065;28;20451;-81
2023/04/19 12:11:04;;;;;;;3.53;1.50;;;;;;;;;;4995655;28;20438;-84
2023/04/19 12:13:35;;;;;;;4.57;1.88;;;;;;;;;;4996124;28;20434;-86
2023/04/19 12:16:03;;;;;;;5.38;1.80;;;;;;;;;;4984900;28;20448;-81
2023/04/19 12:18:47;;;;;;;5.03;1.70;;;;;;;;;;4996940;28;20442;-85
2023/04/19 12:21:26;;;;;;;5.43;1.67;;;;;;;;;;4998020;28;20432;-79
2023/04/19 12:23:55;;;;;;;6.53;1.80;;;;;;;;;;4996219;28;21447;-84
2023/04/19 12:26:22;;;;;;;4.93;1.80;;;;;;;;;;5001666;28;20430;-84
2023/04/19 12:28:52;;;;;;;3.55;1.60;;;;;;;;;;4993002;28;20438;-85
2023/04/19 12:31:20;;;;;;;4.57;1.58;;;;;;;;;;4980417;28;20434;-83
2023/04/19 12:33:48;;;;;;;5.65;1.98;;;;;;;;;;4988347;28;20958;-86
2023/04/19 12:36:16;;;;;;;5.55;1.65;;;;;;;;;;5000650;28;20873;-83
2023/04/19 12:38:48;;;;;;;4.35;1.60;;;;;;;;;;4979652;28;20998;-84
2023/04/19 12:41:16;;;;;;;4.07;1.70;;;;;;;;;;4998228;28;20437;-82
2023/04/19 12:43:49;;;;;;;3.40;1.83;;;;;;;;;;4986239;28;20441;-83
2023/04/19 12:46:23;;;;;;;6.55;1.60;;;;;;;;;;4995970;28;20434;-86
2023/04/19 12:48:51;;;;;;;3.92;1.50;;;;;;;;;;4997465;28;20438;-84
2023/04/19 12:51:19;;;;;;;6.03;1.77;;;;;;;;;;5000034;28;20906;-81
2023/04/19 12:53:47;;;;;;;4.30;1.70;;;;;;;;;;4999793;28;20426;-82
2023/04/19 12:56:20;;;;;;;6.53;1.88;;;;;;;;;;4983975;28;20429;-88
2023/04/19 12:58:53;;;;;;;4.53;1.70;;;;;;;;;;4996729;28;20438;-80
2023/04/19 13:01:21;;;;;;;5.55;1.80;;;;;;;;;;4987591;28;20431;-83
2023/04/19 13:03:50;;;;;;;3.17;1.20;;;;;;;;;;4992824;28;20446;-85
2023/04/19 13:06:18;;;;;;;7.43;1.80;;;;;;;;;;4994724;28;20432;-82
2023/04/19 13:08:46;;;;;;;6.10;1.90;;;;;;;;;;4979363;28;20522;-82
2023/04/19 13:11:14;;;;;;;4.70;1.87;;;;;;;;;;4986866;28;20445;-86
2023/04/19 13:13:41;;;;;;;3.77;1.57;;;;;;;;;;4977770;28;21439;-80
2023/04/19 13:16:09;;;;;;;4.47;1.63;;;;;;;;;;4977269;28;20461;-82
2023/04/19 13:18:42;;;;;;;4.03;1.58;;;;;;;;;;4981368;28;20440;-83
2023/04/19 13:21:11;;;;;;;6.72;1.50;;;;;;;;;;4998933;28;20438;-82
2023/04/19 13:23:39;;;;;;;5.38;1.70;;;;;;;;;;4984833;28;20416;-82
2023/04/19 13:26:07;;;;;;;4.93;1.88;;;;;;;;;;4997034;28;20411;-78
2023/04/19 13:28:38;;;;;;;7.03;1.80;;;;;;;;;;4995285;28;20434;-82
2023/04/19 13:31:06;;;;;;;5.73;1.73;;;;;;;;;;4998100;28;20431;-83
2023/04/19 13:33:39;;;;;;;6.77;1.90;;;;;;;;;;4985699;28;20439;-83
2023/04/19 13:36:07;;;;;;;4.53;1.70;;;;;;;;;;4993069;28;21224;-82
2023/04/19 13:38:41;;;;;;;5.05;1.80;;;;;;;;;;4996046;28;20430;-80
2023/04/19 13:41:09;;;;;;;8.07;1.70;;;;;;;;;;4985780;28;21256;-81
2023/04/19 13:43:37;;;;;;;4.57;1.70;;;;;;;;;;4976943;28;20587;-82
2023/04/19 13:46:05;;;;;;;4.18;1.63;;;;;;;;;;4990882;28;20442;-86
2023/04/19 13:48:33;;;;;;;5.53;1.60;;;;;;;;;;4989975;28;20441;-81
2023/04/19 13:51:06;;;;;;;4.78;1.80;;;;;;;;;;4973795;28;20972;-80
2023/04/19 13:53:34;;;;;;;4.32;1.80;;;;;;;;;;4973384;28;20417;-83
2023/04/19 13:56:03;;;;;;;3.42;1.60;;;;;;;;;;4994680;28;20433;-84
2023/04/19 13:58:31;;;;;;;4.22;1.70;;;;;;;;;;5000471;28;20833;-85
2023/04/19 14:01:00;;;;;;;5.38;1.85;;;;;;;;;;4996962;28;20910;-79
2023/04/19 14:03:33;;;;;;;6.53;2.13;;;;;;;;;;4976088;28;21025;-82
2023/04/19 14:06:00;;;;;;;4.95;2.00;;;;;;;;;;4978448;28;20411;-80
2023/04/19 14:08:28;;;;;;;6.20;1.92;;;;;;;;;;4992750;28;20437;-82
2023/04/19 14:11:03;;;;;;;3.50;1.70;;;;;;;;;;4980749;28;20421;-81
2023/04/19 14:13:30;;;;;;;8.83;1.70;;;;;;;;;;4987430;28;20427;-81
2023/04/19 14:15:58;;;;;;;6.33;2.00;;;;;;;;;;4988598;28;20535;-82
2023/04/19 14:18:31;;;;;;;6.03;2.05;;;;;;;;;;4991063;28;20438;-84
2023/04/19 14:20:59;;;;;;;5.70;1.80;;;;;;;;;;4980970;28;20451;-83
2023/04/19 14:23:27;;;;;;;5.88;2.00;;;;;;;;;;4979702;28;20449;-83
2023/04/19 14:25:55;;;;;;;4.20;1.60;;;;;;;;;;4999403;28;20446;-81
2023/04/19 14:28:24;;;;;;;7.68;1.70;;;;;;;;;;4982391;28;20438;-83
2023/04/19 14:30:57;;;;;;;4.28;1.73;;;;;;;;;;4978442;28;20430;-81
2023/04/19 14:33:25;;;;;;;7.60;1.83;;;;;;;;;;4978096;28;20410;-83
2023/04/19 14:35:53;;;;;;;5.00;1.80;;;;;;;;;;4989643;28;21117;-83
2023/04/19 14:38:26;;;;;;;5.10;1.63;;;;;;;;;;4993977;28;20425;-84
2023/04/19 14:40:53;;;;;;;3.90;1.63;;;;;;;;;;5001729;28;20438;-85
2023/04/19 14:43:27;;;;;;;3.83;1.70;;;;;;;;;;4996379;28;21218;-86
2023/04/19 14:45:55;;;;;;;6.33;1.70;;;;;;;;;;4998655;28;20518;-85
2023/04/19 14:48:24;;;;;;;5.70;1.70;;;;;;;;;;4980265;28;20444;-82
2023/04/19 14:50:52;;;;;;;3.33;1.50;;;;;;;;;;4996138;28;20426;-85
2023/04/19 14:53:19;;;;;;;3.60;1.30;;;;;;;;;;4999038;28;20445;-82
2023/04/19 14:55:47;;;;;;;5.88;1.83;;;;;;;;;;4993794;28;20446;-84
2023/04/19 14:58:15;;;;;;;4.40;1.65;;;;;;;;;;5000998;28;20890;-81
2023/04/19 15:00:44;;;;;;;3.53;1.45;;;;;;;;;;4987045;28;21886;-83
2023/04/19 15:03:17;;;;;;;6.10;1.70;;;;;;;;;;4984044;28;20791;-85